Time;durP1;ratioP1;P1;durP2;ratioP2;P2;SDS_P1;SDS_P2;PMS_P1;PMS_P2;Temp;Humidity;BMP_temperature;BMP_pressure;BME280_temperature;BME280_humidity;BME280_pressure;Samples;Min_cycle;Max_cycle;Signal;HPM_P1;HPM_P2
2023/05/02 00:01:46;;;;;;;6.32;5.82;;;;;;;;;;5057216;28;20032;-66
2023/05/02 00:04:11;;;;;;;6.90;5.82;;;;;;;;;;5060464;28;20585;-65
2023/05/02 00:06:37;;;;;;;5.60;5.15;;;;;;;;;;5063485;28;20033;-66
2023/05/02 00:09:02;;;;;;;5.22;4.75;;;;;;;;;;5058526;28;20048;-66
2023/05/02 00:11:28;;;;;;;6.35;5.60;;;;;;;;;;5044752;28;20047;-66
2023/05/02 00:13:54;;;;;;;6.07;5.50;;;;;;;;;;5055548;28;20110;-65
2023/05/02 00:16:19;;;;;;;6.20;5.28;;;;;;;;;;5060287;28;20025;-65
2023/05/02 00:18:45;;;;;;;6.82;6.13;;;;;;;;;;5063203;28;20383;-66
2023/05/02 00:21:11;;;;;;;5.63;5.13;;;;;;;;;;5062948;28;20146;-66
2023/05/02 00:23:37;;;;;;;6.38;5.82;;;;;;;;;;5067620;28;20032;-66
2023/05/02 00:26:02;;;;;;;7.55;6.80;;;;;;;;;;5061632;28;20036;-65
2023/05/02 00:28:28;;;;;;;5.97;5.50;;;;;;;;;;5057998;28;20171;-65
2023/05/02 00:30:53;;;;;;;6.75;6.05;;;;;;;;;;5062585;28;20036;-65
2023/05/02 00:33:19;;;;;;;6.18;5.57;;;;;;;;;;5064395;28;20036;-65
2023/05/02 00:35:45;;;;;;;7.18;6.47;;;;;;;;;;5042166;28;20423;-66
2023/05/02 00:38:10;;;;;;;11.00;6.57;;;;;;;;;;5036407;28;20032;-66
2023/05/02 00:40:44;;;;;;;6.95;6.25;;;;;;;;;;5065879;28;20032;-65
2023/05/02 00:43:10;;;;;;;7.70;6.85;;;;;;;;;;5051245;28;20040;-66
2023/05/02 00:45:39;;;;;;;7.13;5.80;;;;;;;;;;5040756;28;20033;-65
2023/05/02 00:48:08;;;;;;;6.38;5.78;;;;;;;;;;5041308;28;20129;-65
2023/05/02 00:50:39;;;;;;;6.32;5.75;;;;;;;;;;5035998;28;20144;-65
2023/05/02 00:53:05;;;;;;;6.10;5.60;;;;;;;;;;5042992;28;20032;-66
2023/05/02 00:55:35;;;;;;;7.30;6.45;;;;;;;;;;5061123;28;20472;-66
2023/05/02 00:58:08;;;;;;;7.22;6.53;;;;;;;;;;5055584;28;20037;-67
2023/05/02 01:00:59;;;;;;;6.55;6.03;;;;;;;;;;5037281;28;20045;-66
2023/05/02 01:03:31;;;;;;;6.63;6.13;;;;;;;;;;5057812;28;20036;-66
2023/05/02 01:06:20;;;;;;;8.93;7.20;;;;;;;;;;5059496;28;20036;-66
2023/05/02 01:09:02;;;;;;;8.88;6.28;;;;;;;;;;5036347;28;20376;-65
2023/05/02 01:11:37;;;;;;;7.38;6.70;;;;;;;;;;5057945;28;20036;-65
2023/05/02 01:14:04;;;;;;;6.25;5.70;;;;;;;;;;5046533;28;20115;-65
2023/05/02 01:16:32;;;;;;;7.38;6.68;;;;;;;;;;5040825;28;20041;-65
2023/05/02 01:18:58;;;;;;;8.30;6.82;;;;;;;;;;5042192;28;20484;-66
2023/05/02 01:21:25;;;;;;;6.22;5.78;;;;;;;;;;5042140;28;20044;-66
2023/05/02 01:24:12;;;;;;;7.45;6.78;;;;;;;;;;5039664;28;20043;-66
2023/05/02 01:26:48;;;;;;;6.78;6.13;;;;;;;;;;5056121;28;20033;-66
2023/05/02 01:29:16;;;;;;;7.22;6.47;;;;;;;;;;5037208;28;20028;-66
2023/05/02 01:31:45;;;;;;;9.50;5.85;;;;;;;;;;5057531;28;20054;-66
2023/05/02 01:34:11;;;;;;;7.22;6.53;;;;;;;;;;5040977;28;20137;-66
2023/05/02 01:36:43;;;;;;;9.30;6.20;;;;;;;;;;5040661;28;20041;-66
2023/05/02 01:39:12;;;;;;;6.55;5.75;;;;;;;;;;5043680;28;20028;-66
2023/05/02 01:41:39;;;;;;;6.30;5.72;;;;;;;;;;5055203;28;20495;-66
2023/05/02 01:44:07;;;;;;;5.97;5.47;;;;;;;;;;5037666;28;20037;-66
2023/05/02 01:46:37;;;;;;;6.75;6.07;;;;;;;;;;5058380;28;20034;-65
2023/05/02 01:49:06;;;;;;;6.60;6.00;;;;;;;;;;5060928;28;20029;-65
2023/05/02 01:51:34;;;;;;;6.63;6.03;;;;;;;;;;5062207;28;20036;-65
2023/05/02 01:54:03;;;;;;;8.07;6.68;;;;;;;;;;5038867;28;20037;-65
2023/05/02 01:56:31;;;;;;;7.60;6.90;;;;;;;;;;5057590;28;20036;-65
2023/05/02 01:58:58;;;;;;;;;;;;;;;;;;5047540;28;20028;-65
2023/05/02 02:01:27;;;;;;;7.20;6.57;;;;;;;;;;5055968;28;20402;-65
2023/05/02 02:03:58;;;;;;;7.18;6.43;;;;;;;;;;5057968;28;20047;-64
2023/05/02 02:06:24;;;;;;;6.13;5.60;;;;;;;;;;5043960;28;20029;-65
2023/05/02 02:08:50;;;;;;;8.68;7.00;;;;;;;;;;5036213;28;20169;-65
2023/05/02 02:11:34;;;;;;;6.60;6.00;;;;;;;;;;5038643;28;20063;-64
2023/05/02 02:14:06;;;;;;;5.97;5.50;;;;;;;;;;5057967;28;20045;-65
2023/05/02 02:16:33;;;;;;;6.38;5.78;;;;;;;;;;5053333;28;20454;-64
2023/05/02 02:19:07;;;;;;;7.07;6.38;;;;;;;;;;5059471;28;20024;-65
2023/05/02 02:21:35;;;;;;;6.38;5.78;;;;;;;;;;5044045;28;20048;-65
2023/05/02 02:24:04;;;;;;;9.73;6.78;;;;;;;;;;5062846;28;20037;-65
2023/05/02 02:26:29;;;;;;;6.57;6.00;;;;;;;;;;5050042;22;20051;-75
2023/05/02 02:28:55;;;;;;;6.68;6.15;;;;;;;;;;5035287;28;20033;-73
2023/05/02 02:31:21;;;;;;;6.53;5.95;;;;;;;;;;5022263;28;20515;-74
2023/05/02 02:33:47;;;;;;;6.60;6.10;;;;;;;;;;5018992;28;20416;-74
2023/05/02 02:36:19;;;;;;;8.23;7.40;;;;;;;;;;5015278;28;20600;-75
2023/05/02 02:38:49;;;;;;;6.43;5.82;;;;;;;;;;5007808;28;20100;-75
2023/05/02 02:41:21;;;;;;;5.78;5.35;;;;;;;;;;4988471;28;20026;-76
2023/05/02 02:43:58;;;;;;;7.88;7.10;;;;;;;;;;5010289;28;20132;-73
2023/05/02 02:46:41;;;;;;;7.05;6.35;;;;;;;;;;5011157;28;20480;-75
2023/05/02 02:49:29;;;;;;;7.80;6.00;;;;;;;;;;5011389;28;20119;-76
2023/05/02 02:52:20;;;;;;;7.25;6.60;;;;;;;;;;5012742;28;20045;-75
2023/05/02 02:54:51;;;;;;;9.13;6.22;;;;;;;;;;4993465;28;20506;-74
2023/05/02 02:57:25;;;;;;;5.68;5.28;;;;;;;;;;5010915;28;20401;-74
2023/05/02 03:00:05;;;;;;;6.35;5.75;;;;;;;;;;5009829;28;20124;-75
2023/05/02 03:02:32;;;;;;;7.03;6.32;;;;;;;;;;5012618;28;20042;-74
2023/05/02 03:05:00;;;;;;;6.28;5.43;;;;;;;;;;5033744;28;20065;-72
2023/05/02 03:07:28;;;;;;;8.52;6.47;;;;;;;;;;5018161;28;20044;-75
2023/05/02 03:09:55;;;;;;;7.53;6.80;;;;;;;;;;5016324;28;20045;-75
2023/05/02 03:12:23;;;;;;;7.57;6.18;;;;;;;;;;4996239;28;20040;-74
2023/05/02 03:14:49;;;;;;;6.65;6.05;;;;;;;;;;4991995;28;20038;-74
2023/05/02 03:17:16;;;;;;;6.82;6.22;;;;;;;;;;4992030;28;20045;-77
2023/05/02 03:19:41;;;;;;;6.90;6.20;;;;;;;;;;5010622;28;20083;-76
2023/05/02 03:22:07;;;;;;;6.75;5.85;;;;;;;;;;5009537;28;20102;-73
2023/05/02 03:24:34;;;;;;;6.38;5.90;;;;;;;;;;5009847;28;20480;-75
2023/05/02 03:27:00;;;;;;;5.57;5.18;;;;;;;;;;5011610;28;20052;-77
2023/05/02 03:29:32;;;;;;;6.82;5.97;;;;;;;;;;5030209;28;20045;-77
2023/05/02 03:31:57;;;;;;;6.68;5.97;;;;;;;;;;5006739;28;20038;-74
2023/05/02 03:34:24;;;;;;;5.95;5.43;;;;;;;;;;5010061;28;20037;-73
2023/05/02 03:36:51;;;;;;;7.82;7.18;;;;;;;;;;5010934;28;20098;-75
2023/05/02 03:39:17;;;;;;;5.75;5.30;;;;;;;;;;5006397;28;20033;-75
2023/05/02 03:41:43;;;;;;;8.07;7.35;;;;;;;;;;5004483;28;20541;-74
2023/05/02 03:44:13;;;;;;;7.22;6.53;;;;;;;;;;5008721;28;20029;-75
2023/05/02 03:46:39;;;;;;;7.25;6.55;;;;;;;;;;5010646;28;20033;-75
2023/05/02 03:49:08;;;;;;;6.55;6.03;;;;;;;;;;5006495;28;20397;-75
2023/05/02 03:51:34;;;;;;;6.25;5.75;;;;;;;;;;5009910;28;20033;-74
2023/05/02 03:54:03;;;;;;;8.40;6.97;;;;;;;;;;5008773;28;20123;-74
2023/05/02 03:56:30;;;;;;;7.35;6.75;;;;;;;;;;5009277;28;20046;-75
2023/05/02 03:59:07;;;;;;;7.15;6.50;;;;;;;;;;5010350;28;20048;-76
2023/05/02 04:01:33;;;;;;;6.47;5.88;;;;;;;;;;5011014;28;20037;-74
2023/05/02 04:04:00;;;;;;;8.23;7.43;;;;;;;;;;5008897;28;20037;-74
2023/05/02 04:06:31;;;;;;;8.07;7.28;;;;;;;;;;5007074;28;20041;-74
2023/05/02 04:09:00;;;;;;;7.93;7.22;;;;;;;;;;5010734;28;20073;-76
2023/05/02 04:11:33;;;;;;;9.68;7.82;;;;;;;;;;5007890;28;20048;-76
2023/05/02 04:13:59;;;;;;;8.75;7.70;;;;;;;;;;5030767;28;20493;-77
2023/05/02 04:16:25;;;;;;;9.57;8.23;;;;;;;;;;5006578;28;20033;-75
2023/05/02 04:18:51;;;;;;;8.30;7.47;;;;;;;;;;5005306;28;20159;-77
2023/05/02 04:21:18;;;;;;;9.93;8.35;;;;;;;;;;5002989;28;20151;-76
2023/05/02 04:23:45;;;;;;;8.15;7.20;;;;;;;;;;5007292;28;20515;-76
2023/05/02 04:26:10;;;;;;;7.40;6.65;;;;;;;;;;4994541;28;20041;-77
2023/05/02 04:28:43;;;;;;;8.10;7.38;;;;;;;;;;5004424;28;20082;-75
2023/05/02 04:31:12;;;;;;;6.55;5.97;;;;;;;;;;5008907;28;20041;-76
2023/05/02 04:33:38;;;;;;;8.43;7.63;;;;;;;;;;5001965;28;20091;-76
2023/05/02 04:36:05;;;;;;;8.20;7.40;;;;;;;;;;4999841;28;20038;-77
2023/05/02 04:38:32;;;;;;;8.15;7.35;;;;;;;;;;5034144;28;20041;-76
2023/05/02 04:40:58;;;;;;;9.93;8.35;;;;;;;;;;5006731;28;20156;-76
2023/05/02 04:43:31;;;;;;;9.15;8.18;;;;;;;;;;5006802;28;20554;-76
2023/05/02 04:46:00;;;;;;;8.45;7.43;;;;;;;;;;5010528;28;20052;-76
2023/05/02 04:48:36;;;;;;;9.38;8.32;;;;;;;;;;5010066;28;20420;-76
2023/05/02 04:51:01;;;;;;;9.35;8.43;;;;;;;;;;5008379;28;20041;-74
2023/05/02 04:53:29;;;;;;;12.18;7.78;;;;;;;;;;4993322;28;20033;-75
2023/05/02 04:55:54;;;;;;;7.13;6.45;;;;;;;;;;5008749;28;20103;-75
2023/05/02 04:58:20;;;;;;;10.15;7.90;;;;;;;;;;5013715;28;20671;-73
2023/05/02 05:00:51;;;;;;;8.60;7.78;;;;;;;;;;4995383;28;20582;-73
2023/05/02 05:03:16;;;;;;;7.32;6.53;;;;;;;;;;5027541;28;20040;-72
2023/05/02 05:05:42;;;;;;;21.15;8.35;;;;;;;;;;5025020;28;20110;-73
2023/05/02 05:08:12;;;;;;;6.82;6.22;;;;;;;;;;5007676;28;20033;-74
2023/05/02 05:10:39;;;;;;;8.02;7.22;;;;;;;;;;5027238;28;20044;-73
2023/05/02 05:13:05;;;;;;;7.25;6.65;;;;;;;;;;4993456;28;20092;-73
2023/05/02 05:15:31;;;;;;;7.53;6.72;;;;;;;;;;5009411;28;20147;-73
2023/05/02 05:17:59;;;;;;;10.65;7.03;;;;;;;;;;5005240;28;20096;-75
2023/05/02 05:20:25;;;;;;;7.40;6.80;;;;;;;;;;5008142;28;20025;-73
2023/05/02 05:22:55;;;;;;;7.30;6.63;;;;;;;;;;5008137;28;20092;-73
2023/05/02 05:25:21;;;;;;;9.15;7.10;;;;;;;;;;5007778;28;20037;-74
2023/05/02 05:27:51;;;;;;;6.63;6.13;;;;;;;;;;5008967;28;20072;-73
2023/05/02 05:30:16;;;;;;;9.23;8.35;;;;;;;;;;5009154;28;20037;-74
2023/05/02 05:32:42;;;;;;;14.95;6.53;;;;;;;;;;5026958;28;20719;-74
2023/05/02 05:35:08;;;;;;;7.70;7.10;;;;;;;;;;5024636;28;20120;-73
2023/05/02 05:37:38;;;;;;;8.57;7.03;;;;;;;;;;5008893;28;20029;-72
2023/05/02 05:40:07;;;;;;;8.00;7.22;;;;;;;;;;5026489;28;20034;-74
2023/05/02 05:42:33;;;;;;;7.30;6.72;;;;;;;;;;5008176;28;20567;-73
2023/05/02 05:45:02;;;;;;;;;;;;;;;;;;5006579;28;20532;-73
2023/05/02 05:47:29;;;;;;;7.35;6.75;;;;;;;;;;5009046;28;19970;-75
2023/05/02 05:49:55;;;;;;;7.20;6.60;;;;;;;;;;5005766;28;20077;-74
2023/05/02 05:52:25;;;;;;;7.95;7.18;;;;;;;;;;4991684;28;20037;-73
2023/05/02 05:54:54;;;;;;;8.40;7.70;;;;;;;;;;5007537;28;20043;-73
2023/05/02 05:57:20;;;;;;;8.15;7.45;;;;;;;;;;5006187;28;20057;-73
2023/05/02 05:59:46;;;;;;;7.95;7.25;;;;;;;;;;5008630;28;20068;-73
2023/05/02 06:02:15;;;;;;;8.27;7.47;;;;;;;;;;5007425;28;20405;-73
2023/05/02 06:04:41;;;;;;;8.07;7.38;;;;;;;;;;5009989;28;20044;-72
2023/05/02 06:07:07;;;;;;;9.52;7.68;;;;;;;;;;5018017;28;20491;-74
2023/05/02 06:09:32;;;;;;;8.27;7.47;;;;;;;;;;5005798;28;20037;-75
2023/05/02 06:12:00;;;;;;;8.52;7.68;;;;;;;;;;5027233;28;20034;-74
2023/05/02 06:14:26;;;;;;;8.02;7.35;;;;;;;;;;5029210;28;20037;-73
2023/05/02 06:16:52;;;;;;;8.18;7.30;;;;;;;;;;5008876;28;20041;-73
2023/05/02 06:19:18;;;;;;;7.53;6.82;;;;;;;;;;5008198;28;20033;-74
2023/05/02 06:21:43;;;;;;;8.10;7.38;;;;;;;;;;5007230;28;20144;-73
2023/05/02 06:24:09;;;;;;;8.05;7.35;;;;;;;;;;4992626;28;20061;-73
2023/05/02 06:26:35;;;;;;;7.60;6.93;;;;;;;;;;5025002;28;20436;-74
2023/05/02 06:29:01;;;;;;;7.20;6.55;;;;;;;;;;5021049;28;20044;-76
2023/05/02 06:31:26;;;;;;;8.82;7.93;;;;;;;;;;5022103;28;20037;-74
2023/05/02 06:33:52;;;;;;;20.80;15.65;;;;;;;;;;5026000;28;20029;-75
2023/05/02 06:36:18;;;;;;;22.75;17.02;;;;;;;;;;5021667;28;20397;-74
2023/05/02 06:38:43;;;;;;;11.68;10.45;;;;;;;;;;5025816;28;20136;-74
2023/05/02 06:41:15;;;;;;;13.93;7.53;;;;;;;;;;5026648;28;20624;-75
2023/05/02 06:43:41;;;;;;;8.13;7.43;;;;;;;;;;5023017;28;20029;-74
2023/05/02 06:46:08;;;;;;;8.10;7.03;;;;;;;;;;5026056;28;20042;-75
2023/05/02 06:48:36;;;;;;;8.43;7.57;;;;;;;;;;5025458;28;20553;-73
2023/05/02 06:51:03;;;;;;;10.20;8.30;;;;;;;;;;5017886;28;20203;-72
2023/05/02 06:53:30;;;;;;;8.90;7.95;;;;;;;;;;5025878;28;20030;-73
2023/05/02 06:55:55;;;;;;;11.27;9.07;;;;;;;;;;5008553;28;20042;-75
2023/05/02 06:58:21;;;;;;;12.32;7.85;;;;;;;;;;5025864;28;20124;-74
2023/05/02 07:00:47;;;;;;;9.77;8.35;;;;;;;;;;5023849;28;20149;-74
2023/05/02 07:03:13;;;;;;;10.48;8.88;;;;;;;;;;5032079;28;20042;-75
2023/05/02 07:05:39;;;;;;;10.35;8.88;;;;;;;;;;5024761;28;20058;-75
2023/05/02 07:08:05;;;;;;;10.70;9.60;;;;;;;;;;5026803;28;20042;-74
2023/05/02 07:10:30;;;;;;;10.98;8.95;;;;;;;;;;5028285;28;20041;-74
2023/05/02 07:12:56;;;;;;;12.45;9.95;;;;;;;;;;5030113;28;20547;-75
2023/05/02 07:15:21;;;;;;;11.15;9.27;;;;;;;;;;5029682;28;20600;-75
2023/05/02 07:17:48;;;;;;;13.68;9.18;;;;;;;;;;5026310;28;20037;-76
2023/05/02 07:20:14;;;;;;;11.55;9.20;;;;;;;;;;5029018;28;20057;-74
2023/05/02 07:22:40;;;;;;;12.70;10.00;;;;;;;;;;5029540;28;20465;-74
2023/05/02 07:25:05;;;;;;;11.77;9.15;;;;;;;;;;5029198;28;20564;-75
2023/05/02 07:27:31;;;;;;;13.80;10.45;;;;;;;;;;5025744;28;20500;-75
2023/05/02 07:29:56;;;;;;;11.80;10.45;;;;;;;;;;5025776;28;20133;-75
2023/05/02 07:32:24;;;;;;;10.32;9.15;;;;;;;;;;5028982;28;20043;-75
2023/05/02 07:34:53;;;;;;;12.70;9.60;;;;;;;;;;5028945;28;20478;-74
2023/05/02 07:37:19;;;;;;;11.23;9.57;;;;;;;;;;5029283;28;20120;-76
2023/05/02 07:39:45;;;;;;;11.38;10.13;;;;;;;;;;5027489;28;20029;-76
2023/05/02 07:42:10;;;;;;;15.95;11.98;;;;;;;;;;5029551;28;20040;-75
2023/05/02 07:44:36;;;;;;;10.38;9.15;;;;;;;;;;5029679;28;20061;-75
2023/05/02 07:47:01;;;;;;;9.75;8.85;;;;;;;;;;5026503;28;20116;-75
2023/05/02 07:49:27;;;;;;;16.95;9.25;;;;;;;;;;5029159;28;20053;-75
2023/05/02 07:51:52;;;;;;;10.43;9.30;;;;;;;;;;5030049;28;20109;-75
2023/05/02 07:54:20;;;;;;;10.88;9.70;;;;;;;;;;5027944;28;20055;-76
2023/05/02 07:56:46;;;;;;;11.73;10.38;;;;;;;;;;5028755;28;20037;-76
2023/05/02 07:59:12;;;;;;;11.68;8.70;;;;;;;;;;5029380;28;20033;-76
2023/05/02 08:01:39;;;;;;;14.02;10.25;;;;;;;;;;5029534;28;20036;-75
2023/05/02 08:04:04;;;;;;;12.32;9.80;;;;;;;;;;5026162;28;20079;-76
2023/05/02 08:06:32;;;;;;;15.27;10.10;;;;;;;;;;5029623;28;20704;-76
2023/05/02 08:08:58;;;;;;;14.48;12.35;;;;;;;;;;5029470;28;20042;-75
2023/05/02 08:11:27;;;;;;;12.50;11.20;;;;;;;;;;5027432;28;20048;-75
2023/05/02 08:13:52;;;;;;;13.15;10.85;;;;;;;;;;5029466;28;20037;-75
2023/05/02 08:16:19;;;;;;;12.57;10.85;;;;;;;;;;5029627;28;20620;-76
2023/05/02 08:18:45;;;;;;;16.52;12.00;;;;;;;;;;5026290;28;20029;-76
2023/05/02 08:21:11;;;;;;;13.15;11.35;;;;;;;;;;5026336;28;20690;-75
2023/05/02 08:23:36;;;;;;;16.17;11.45;;;;;;;;;;5028982;28;20029;-76
2023/05/02 08:26:03;;;;;;;17.42;12.35;;;;;;;;;;5029058;28;20045;-76
2023/05/02 08:28:29;;;;;;;20.80;12.68;;;;;;;;;;5025838;28;20144;-75
2023/05/02 08:30:55;;;;;;;16.40;12.10;;;;;;;;;;5028584;28;20056;-75
2023/05/02 08:33:20;;;;;;;16.77;12.13;;;;;;;;;;5028272;28;20488;-75
2023/05/02 08:35:47;;;;;;;16.10;12.68;;;;;;;;;;5028198;28;20424;-75
2023/05/02 08:38:13;;;;;;;18.48;13.32;;;;;;;;;;5025714;28;20044;-75
2023/05/02 08:40:38;;;;;;;17.55;13.48;;;;;;;;;;5023186;28;20034;-76
2023/05/02 08:43:05;;;;;;;15.10;11.90;;;;;;;;;;5028207;28;20083;-75
2023/05/02 08:45:37;;;;;;;13.80;11.50;;;;;;;;;;5008590;28;20045;-74
2023/05/02 08:48:09;;;;;;;17.38;13.23;;;;;;;;;;5027315;28;20045;-75
2023/05/02 08:50:44;;;;;;;16.98;12.07;;;;;;;;;;5027595;28;20038;-76
2023/05/02 08:53:10;;;;;;;12.88;10.68;;;;;;;;;;5025698;28;20508;-76
2023/05/02 08:55:40;;;;;;;17.10;13.38;;;;;;;;;;5026711;28;20183;-74
2023/05/02 08:58:08;;;;;;;16.63;13.27;;;;;;;;;;5027438;28;20037;-73
2023/05/02 09:00:39;;;;;;;16.65;12.60;;;;;;;;;;5027708;28;20029;-76
2023/05/02 09:03:16;;;;;;;18.45;13.90;;;;;;;;;;5025891;28;20033;-74
2023/05/02 09:05:43;;;;;;;15.88;12.35;;;;;;;;;;5030816;28;20075;-74
2023/05/02 09:08:08;;;;;;;14.57;11.88;;;;;;;;;;5030609;28;20033;-75
2023/05/02 09:10:37;;;;;;;12.65;11.30;;;;;;;;;;5024055;28;20144;-76
2023/05/02 09:13:28;;;;;;;18.88;13.57;;;;;;;;;;5029952;28;20033;-74
2023/05/02 09:15:59;;;;;;;17.15;11.93;;;;;;;;;;5028214;28;20097;-76
2023/05/02 09:18:30;;;;;;;13.48;11.73;;;;;;;;;;5024437;28;20628;-75
2023/05/02 09:21:00;;;;;;;15.13;11.85;;;;;;;;;;5024848;28;20033;-76
2023/05/02 09:23:43;;;;;;;14.35;12.05;;;;;;;;;;5028282;28;20037;-74
2023/05/02 09:26:31;;;;;;;17.00;13.18;;;;;;;;;;5026641;28;20068;-76
2023/05/02 09:28:58;;;;;;;13.38;11.98;;;;;;;;;;5022430;28;20065;-75
2023/05/02 09:31:45;;;;;;;16.83;12.85;;;;;;;;;;5012808;28;20210;-74
2023/05/02 09:34:13;;;;;;;17.67;12.35;;;;;;;;;;5029310;28;20042;-76
2023/05/02 09:36:46;;;;;;;17.48;13.50;;;;;;;;;;5032316;28;20049;-75
2023/05/02 09:39:17;;;;;;;17.23;12.70;;;;;;;;;;5029773;28;20033;-76
2023/05/02 09:41:48;;;;;;;13.73;11.40;;;;;;;;;;5027663;28;20045;-75
2023/05/02 09:44:19;;;;;;;11.15;9.27;;;;;;;;;;5019455;28;20025;-75
2023/05/02 09:46:47;;;;;;;15.35;13.23;;;;;;;;;;5007414;28;20088;-76
2023/05/02 09:49:13;;;;;;;16.23;11.95;;;;;;;;;;5026027;28;20038;-74
2023/05/02 09:51:42;;;;;;;16.10;11.65;;;;;;;;;;5004759;28;20131;-76
2023/05/02 09:54:08;;;;;;;15.30;12.82;;;;;;;;;;5026849;28;20396;-75
2023/05/02 09:56:55;;;;;;;14.35;12.85;;;;;;;;;;5008362;28;20052;-74
2023/05/02 09:59:21;;;;;;;14.40;10.90;;;;;;;;;;5026258;28;20477;-74
2023/05/02 10:01:55;;;;;;;13.35;11.85;;;;;;;;;;5026669;28;20036;-73
2023/05/02 10:04:21;;;;;;;13.27;10.73;;;;;;;;;;5021073;28;20037;-73
2023/05/02 10:06:48;;;;;;;11.73;10.50;;;;;;;;;;5026913;28;20030;-74
2023/05/02 10:09:14;;;;;;;14.82;10.55;;;;;;;;;;5026508;28;20160;-74
2023/05/02 10:11:42;;;;;;;13.02;11.00;;;;;;;;;;5026988;28;20200;-74
2023/05/02 10:14:09;;;;;;;11.25;9.98;;;;;;;;;;5007455;28;20370;-74
2023/05/02 10:16:37;;;;;;;11.20;8.93;;;;;;;;;;5026050;28;20033;-73
2023/05/02 10:19:11;;;;;;;13.60;10.48;;;;;;;;;;5007386;28;20608;-74
2023/05/02 10:21:39;;;;;;;12.77;10.15;;;;;;;;;;5026569;28;20033;-75
2023/05/02 10:24:05;;;;;;;13.07;9.45;;;;;;;;;;5024070;28;20029;-74
2023/05/02 10:26:33;;;;;;;13.38;10.48;;;;;;;;;;5023490;28;20045;-73
2023/05/02 10:28:59;;;;;;;14.03;10.20;;;;;;;;;;5026197;28;20037;-74
2023/05/02 10:31:25;;;;;;;13.73;10.27;;;;;;;;;;5026787;28;20303;-74
2023/05/02 10:33:51;;;;;;;14.18;10.35;;;;;;;;;;5027206;28;20029;-73
2023/05/02 10:36:20;;;;;;;10.68;9.23;;;;;;;;;;5023076;28;20079;-74
2023/05/02 10:38:47;;;;;;;10.93;9.70;;;;;;;;;;5025184;28;20033;-74
2023/05/02 10:41:17;;;;;;;12.27;9.70;;;;;;;;;;5024014;28;20036;-73
2023/05/02 10:43:46;;;;;;;13.23;10.68;;;;;;;;;;5025700;28;20087;-73
2023/05/02 10:46:41;;;;;;;;;;;;;;;;;;5032421;28;20029;-75
2023/05/02 10:49:12;;;;;;;13.55;10.13;;;;;;;;;;4965102;28;20425;-73
2023/05/02 10:51:40;;;;;;;15.50;10.27;;;;;;;;;;4962325;28;20037;-74
2023/05/02 10:54:22;;;;;;;10.45;9.38;;;;;;;;;;4964775;28;20051;-74
2023/05/02 10:57:04;;;;;;;12.05;9.82;;;;;;;;;;4951281;28;20041;-74
2023/05/02 10:59:35;;;;;;;13.80;10.13;;;;;;;;;;4960376;28;20054;-74
2023/05/02 11:02:01;;;;;;;11.13;8.55;;;;;;;;;;4957575;28;20136;-74
2023/05/02 11:05:02;;;;;;;10.57;9.00;;;;;;;;;;4959498;28;20038;-74
2023/05/02 11:07:31;;;;;;;10.20;9.15;;;;;;;;;;4958496;28;20046;-73
2023/05/02 11:10:21;;;;;;;12.70;10.43;;;;;;;;;;4961183;28;20047;-74
2023/05/02 11:12:49;;;;;;;11.65;8.63;;;;;;;;;;4960237;28;20043;-74
2023/05/02 11:15:40;;;;;;;9.25;8.20;;;;;;;;;;4946819;28;20038;-74
2023/05/02 11:18:11;;;;;;;10.80;9.27;;;;;;;;;;4962425;28;20057;-74
2023/05/02 11:20:39;;;;;;;9.85;8.52;;;;;;;;;;4958938;28;20027;-74
2023/05/02 11:23:25;;;;;;;11.88;9.75;;;;;;;;;;4959815;28;20062;-74
2023/05/02 11:25:53;;;;;;;9.60;8.60;;;;;;;;;;4986068;28;20060;-74
2023/05/02 11:28:38;;;;;;;11.40;8.70;;;;;;;;;;5025796;28;20041;-74
2023/05/02 11:31:05;;;;;;;10.95;8.38;;;;;;;;;;5021761;28;20072;-74
2023/05/02 11:33:31;;;;;;;9.77;8.70;;;;;;;;;;5026519;28;20032;-74
2023/05/02 11:35:57;;;;;;;9.68;8.73;;;;;;;;;;5027728;28;20033;-74
2023/05/02 11:38:25;;;;;;;11.52;9.43;;;;;;;;;;5027027;28;20033;-74
2023/05/02 11:40:58;;;;;;;10.48;9.38;;;;;;;;;;5025045;28;20083;-74
2023/05/02 11:43:26;;;;;;;9.73;8.73;;;;;;;;;;5026016;28;20033;-74
2023/05/02 11:45:53;;;;;;;12.70;9.93;;;;;;;;;;5007347;28;20120;-74
2023/05/02 11:48:21;;;;;;;12.48;10.18;;;;;;;;;;5027136;28;20055;-74
2023/05/02 11:50:49;;;;;;;10.50;9.40;;;;;;;;;;5024715;28;20041;-75
2023/05/02 11:53:27;;;;;;;11.20;9.80;;;;;;;;;;5026770;28;20408;-74
2023/05/02 11:55:55;;;;;;;16.00;10.32;;;;;;;;;;5027039;28;20398;-74
2023/05/02 11:58:22;;;;;;;13.75;9.90;;;;;;;;;;5024290;28;20680;-74
2023/05/02 12:00:48;;;;;;;11.48;10.05;;;;;;;;;;5027241;28;20045;-74
2023/05/02 12:03:31;;;;;;;12.00;9.88;;;;;;;;;;5031659;28;20097;-73
2023/05/02 12:06:11;;;;;;;11.70;10.45;;;;;;;;;;5026444;28;20099;-74
2023/05/02 12:08:37;;;;;;;11.75;9.73;;;;;;;;;;5027898;28;20056;-74
2023/05/02 12:11:03;;;;;;;10.57;9.52;;;;;;;;;;5026704;28;20124;-74
2023/05/02 12:13:29;;;;;;;10.68;9.57;;;;;;;;;;5026675;28;20120;-74
2023/05/02 12:15:55;;;;;;;10.90;9.20;;;;;;;;;;5007480;28;20148;-74
2023/05/02 12:18:23;;;;;;;13.15;10.15;;;;;;;;;;5025942;28;20036;-74
2023/05/02 12:20:53;;;;;;;11.52;9.70;;;;;;;;;;5027091;28;20164;-74
2023/05/02 12:23:19;;;;;;;15.07;10.20;;;;;;;;;;5023055;28;20116;-75
2023/05/02 12:25:45;;;;;;;12.45;8.70;;;;;;;;;;5026314;28;20037;-74
2023/05/02 12:28:11;;;;;;;9.93;8.95;;;;;;;;;;5026376;28;20041;-74
2023/05/02 12:30:38;;;;;;;10.38;9.23;;;;;;;;;;5024119;28;20044;-73
2023/05/02 12:33:05;;;;;;;11.77;8.75;;;;;;;;;;5026486;28;20065;-73
2023/05/02 12:35:31;;;;;;;10.50;8.73;;;;;;;;;;5026168;28;20124;-73
2023/05/02 12:38:16;;;;;;;10.93;9.48;;;;;;;;;;5024060;28;20472;-73
2023/05/02 12:40:52;;;;;;;12.93;11.63;;;;;;;;;;5026284;28;20401;-74
2023/05/02 12:43:20;;;;;;;13.07;10.45;;;;;;;;;;5019630;28;20037;-75
2023/05/02 12:45:48;;;;;;;11.63;10.25;;;;;;;;;;5024930;28;20378;-74
2023/05/02 12:48:18;;;;;;;12.07;10.60;;;;;;;;;;5026258;28;20033;-74
2023/05/02 12:50:44;;;;;;;13.10;11.07;;;;;;;;;;5024820;28;20033;-75
2023/05/02 12:53:10;;;;;;;12.88;11.20;;;;;;;;;;5027694;28;20114;-75
2023/05/02 12:55:35;;;;;;;10.65;9.50;;;;;;;;;;5027645;28;20033;-74
2023/05/02 12:58:03;;;;;;;15.43;11.15;;;;;;;;;;5028374;28;20080;-75
2023/05/02 13:00:31;;;;;;;10.80;9.50;;;;;;;;;;5009741;28;20112;-73
2023/05/02 13:02:56;;;;;;;11.70;10.18;;;;;;;;;;5025418;28;20408;-74
2023/05/02 13:05:22;;;;;;;14.57;10.63;;;;;;;;;;5026808;28;20034;-73
2023/05/02 13:07:48;;;;;;;17.67;11.40;;;;;;;;;;5024814;28;20116;-73
2023/05/02 13:10:16;;;;;;;13.85;10.55;;;;;;;;;;5027005;28;20029;-74
2023/05/02 13:12:42;;;;;;;13.65;11.32;;;;;;;;;;5027956;28;20037;-73
2023/05/02 13:15:08;;;;;;;13.98;11.82;;;;;;;;;;5008674;28;20037;-72
2023/05/02 13:17:34;;;;;;;11.68;10.48;;;;;;;;;;5027288;28;20523;-74
2023/05/02 13:20:00;;;;;;;13.00;11.23;;;;;;;;;;5027571;28;20048;-74
2023/05/02 13:22:27;;;;;;;15.45;11.52;;;;;;;;;;5027750;28;20037;-74
2023/05/02 13:24:53;;;;;;;13.07;11.07;;;;;;;;;;5025643;28;20071;-73
2023/05/02 13:27:21;;;;;;;13.07;11.30;;;;;;;;;;5011951;28;20037;-73
2023/05/02 13:29:48;;;;;;;11.23;9.27;;;;;;;;;;5027271;28;20029;-73
2023/05/02 13:32:14;;;;;;;11.23;9.32;;;;;;;;;;5024981;28;20100;-73
2023/05/02 13:34:40;;;;;;;13.43;9.48;;;;;;;;;;5027464;28;20159;-75
2023/05/02 13:37:05;;;;;;;10.43;9.30;;;;;;;;;;5007338;28;20438;-73
2023/05/02 13:39:31;;;;;;;13.73;9.85;;;;;;;;;;5007692;28;20029;-75
2023/05/02 13:41:56;;;;;;;13.15;10.90;;;;;;;;;;5025258;28;20053;-74
2023/05/02 13:44:22;;;;;;;12.32;10.20;;;;;;;;;;5027188;28;20120;-74
2023/05/02 13:46:47;;;;;;;12.77;10.48;;;;;;;;;;5027155;28;20502;-73
2023/05/02 13:49:13;;;;;;;13.63;11.43;;;;;;;;;;5025326;28;20039;-74
2023/05/02 13:51:39;;;;;;;10.18;9.05;;;;;;;;;;5026370;28;20043;-73
2023/05/02 13:54:04;;;;;;;12.07;10.77;;;;;;;;;;5026683;28;20037;-72
2023/05/02 13:56:30;;;;;;;14.82;11.85;;;;;;;;;;5026924;28;20048;-74
2023/05/02 13:58:56;;;;;;;16.60;11.77;;;;;;;;;;5023196;28;20052;-74
2023/05/02 14:01:22;;;;;;;14.07;11.35;;;;;;;;;;5026414;28;20601;-75
2023/05/02 14:03:47;;;;;;;12.25;10.13;;;;;;;;;;5026596;28;20026;-74
2023/05/02 14:06:13;;;;;;;12.65;10.43;;;;;;;;;;5026680;28;20041;-72
2023/05/02 14:08:39;;;;;;;16.42;11.77;;;;;;;;;;5020851;28;20057;-74
2023/05/02 14:11:04;;;;;;;13.52;11.57;;;;;;;;;;5010220;28;20068;-73
2023/05/02 14:13:30;;;;;;;13.23;11.35;;;;;;;;;;5026936;28;20041;-72
2023/05/02 14:15:57;;;;;;;11.23;9.43;;;;;;;;;;5026920;28;20116;-73
2023/05/02 14:18:23;;;;;;;11.52;10.32;;;;;;;;;;5027633;28;20041;-73
2023/05/02 14:20:48;;;;;;;11.65;9.15;;;;;;;;;;5029886;28;20439;-74
2023/05/02 14:23:14;;;;;;;11.70;9.90;;;;;;;;;;5030179;28;20025;-74
2023/05/02 14:25:40;;;;;;;9.82;8.73;;;;;;;;;;5028274;28;20421;-76
2023/05/02 14:28:05;;;;;;;11.50;9.95;;;;;;;;;;5028635;28;20123;-74
2023/05/02 14:30:31;;;;;;;11.18;9.70;;;;;;;;;;5030951;28;20029;-73
2023/05/02 14:32:56;;;;;;;10.77;9.60;;;;;;;;;;5031875;28;20069;-74
2023/05/02 14:35:22;;;;;;;12.85;9.10;;;;;;;;;;5029984;28;20121;-75
2023/05/02 14:37:48;;;;;;;11.15;9.38;;;;;;;;;;5039084;28;20037;-74
2023/05/02 14:40:14;;;;;;;9.60;8.70;;;;;;;;;;5029984;28;20037;-73
2023/05/02 14:42:40;;;;;;;10.73;9.07;;;;;;;;;;5028246;28;20328;-73